sensor_id;sensor_type;location;lat;lon;timestamp;temperature;humidity
11091;DHT22;5599;52.210;21.046;2023-05-17T00:01:01;15.90;7.20
11091;DHT22;5599;52.210;21.046;2023-05-17T00:03:30;15.80;99.90
11091;DHT22;5599;52.210;21.046;2023-05-17T00:06:00;15.70;99.90
11091;DHT22;5599;52.210;21.046;2023-05-17T00:08:29;15.70;99.90
11091;DHT22;5599;52.210;21.046;2023-05-17T00:11:01;15.60;99.90
11091;DHT22;5599;52.210;21.046;2023-05-17T00:13:31;15.60;99.90
11091;DHT22;5599;52.210;21.046;2023-05-17T00:16:06;15.60;99.90
11091;DHT22;5599;52.210;21.046;2023-05-17T00:18:36;15.50;99.90
11091;DHT22;5599;52.210;21.046;2023-05-17T00:21:06;15.50;99.90
11091;DHT22;5599;52.210;21.046;2023-05-17T00:23:38;15.40;99.90
11091;DHT22;5599;52.210;21.046;2023-05-17T00:26:11;15.30;99.90
11091;DHT22;5599;52.210;21.046;2023-05-17T00:28:42;15.20;1.00
11091;DHT22;5599;52.210;21.046;2023-05-17T00:31:13;15.10;1.00
11091;DHT22;5599;52.210;21.046;2023-05-17T00:33:44;15.10;1.00
11091;DHT22;5599;52.210;21.046;2023-05-17T00:36:14;15.00;1.00
11091;DHT22;5599;52.210;21.046;2023-05-17T00:38:43;15.00;1.00
11091;DHT22;5599;52.210;21.046;2023-05-17T00:41:14;15.00;1.00
11091;DHT22;5599;52.210;21.046;2023-05-17T00:43:45;15.00;1.00
11091;DHT22;5599;52.210;21.046;2023-05-17T00:46:15;15.00;1.00
11091;DHT22;5599;52.210;21.046;2023-05-17T00:48:44;15.10;1.00
11091;DHT22;5599;52.210;21.046;2023-05-17T00:51:15;15.20;1.00
11091;DHT22;5599;52.210;21.046;2023-05-17T00:53:47;15.10;1.00
11091;DHT22;5599;52.210;21.046;2023-05-17T00:56:18;15.10;1.00
11091;DHT22;5599;52.210;21.046;2023-05-17T00:58:47;15.30;1.00
11091;DHT22;5599;52.210;21.046;2023-05-17T01:01:17;15.20;1.00
11091;DHT22;5599;52.210;21.046;2023-05-17T01:03:47;15.30;1.00
11091;DHT22;5599;52.210;21.046;2023-05-17T01:06:17;15.30;1.00
11091;DHT22;5599;52.210;21.046;2023-05-17T01:08:46;14.90;1.00
11091;DHT22;5599;52.210;21.046;2023-05-17T01:11:28;14.90;1.00
11091;DHT22;5599;52.210;21.046;2023-05-17T01:14:01;14.80;1.00
11091;DHT22;5599;52.210;21.046;2023-05-17T01:16:41;14.90;69.10
11091;DHT22;5599;52.210;21.046;2023-05-17T01:19:25;14.90;99.90
11091;DHT22;5599;52.210;21.046;2023-05-17T01:22:05;14.90;99.90
11091;DHT22;5599;52.210;21.046;2023-05-17T01:24:47;14.80;99.90
11091;DHT22;5599;52.210;21.046;2023-05-17T01:27:21;14.80;99.90
11091;DHT22;5599;52.210;21.046;2023-05-17T01:29:52;14.70;99.90
11091;DHT22;5599;52.210;21.046;2023-05-17T01:32:24;14.60;99.90
11091;DHT22;5599;52.210;21.046;2023-05-17T01:34:53;14.50;99.90
11091;DHT22;5599;52.210;21.046;2023-05-17T01:37:23;14.60;99.90
11091;DHT22;5599;52.210;21.046;2023-05-17T01:39:52;14.50;99.90
11091;DHT22;5599;52.210;21.046;2023-05-17T01:42:28;14.60;99.90
11091;DHT22;5599;52.210;21.046;2023-05-17T01:45:03;14.50;99.90
11091;DHT22;5599;52.210;21.046;2023-05-17T01:47:40;14.50;99.90
11091;DHT22;5599;52.210;21.046;2023-05-17T01:50:16;14.40;99.90
11091;DHT22;5599;52.210;21.046;2023-05-17T01:52:49;14.40;99.90
11091;DHT22;5599;52.210;21.046;2023-05-17T01:55:25;14.30;99.90
11091;DHT22;5599;52.210;21.046;2023-05-17T01:57:56;14.30;99.90
11091;DHT22;5599;52.210;21.046;2023-05-17T02:00:28;14.30;99.90
11091;DHT22;5599;52.210;21.046;2023-05-17T02:02:58;14.20;99.90
11091;DHT22;5599;52.210;21.046;2023-05-17T02:05:27;14.20;99.90
11091;DHT22;5599;52.210;21.046;2023-05-17T02:07:57;14.20;99.90
11091;DHT22;5599;52.210;21.046;2023-05-17T02:10:27;14.10;99.90
11091;DHT22;5599;52.210;21.046;2023-05-17T02:12:57;14.00;99.90
11091;DHT22;5599;52.210;21.046;2023-05-17T02:15:27;14.00;99.90
11091;DHT22;5599;52.210;21.046;2023-05-17T02:17:58;13.90;99.90
11091;DHT22;5599;52.210;21.046;2023-05-17T02:20:28;13.90;99.90
11091;DHT22;5599;52.210;21.046;2023-05-17T02:22:58;13.80;99.90
11091;DHT22;5599;52.210;21.046;2023-05-17T02:25:27;13.80;99.90
11091;DHT22;5599;52.210;21.046;2023-05-17T02:28:00;13.80;99.90
11091;DHT22;5599;52.210;21.046;2023-05-17T02:30:29;13.70;99.90
11091;DHT22;5599;52.210;21.046;2023-05-17T02:32:59;13.70;99.90
11091;DHT22;5599;52.210;21.046;2023-05-17T02:35:28;13.70;99.90
11091;DHT22;5599;52.210;21.046;2023-05-17T02:37:58;13.80;99.90
11091;DHT22;5599;52.210;21.046;2023-05-17T02:40:27;13.80;99.90
11091;DHT22;5599;52.210;21.046;2023-05-17T02:42:57;13.80;99.90
11091;DHT22;5599;52.210;21.046;2023-05-17T02:45:27;13.80;99.90
11091;DHT22;5599;52.210;21.046;2023-05-17T02:47:57;13.80;99.90
11091;DHT22;5599;52.210;21.046;2023-05-17T02:50:27;13.80;99.90
11091;DHT22;5599;52.210;21.046;2023-05-17T02:52:57;13.80;99.90
11091;DHT22;5599;52.210;21.046;2023-05-17T02:55:26;13.80;99.90
11091;DHT22;5599;52.210;21.046;2023-05-17T02:57:56;13.80;99.90
11091;DHT22;5599;52.210;21.046;2023-05-17T03:00:27;13.70;99.90
11091;DHT22;5599;52.210;21.046;2023-05-17T03:02:56;13.70;99.90
11091;DHT22;5599;52.210;21.046;2023-05-17T03:05:25;13.60;99.90
11091;DHT22;5599;52.210;21.046;2023-05-17T03:07:56;13.50;99.90
11091;DHT22;5599;52.210;21.046;2023-05-17T03:10:25;13.50;99.90
11091;DHT22;5599;52.210;21.046;2023-05-17T03:12:54;13.60;99.90
11091;DHT22;5599;52.210;21.046;2023-05-17T03:15:29;13.60;99.90
11091;DHT22;5599;52.210;21.046;2023-05-17T03:17:59;13.60;99.90
11091;DHT22;5599;52.210;21.046;2023-05-17T03:20:29;13.50;99.90
11091;DHT22;5599;52.210;21.046;2023-05-17T03:22:58;13.50;99.90
11091;DHT22;5599;52.210;21.046;2023-05-17T03:25:28;13.40;99.90
11091;DHT22;5599;52.210;21.046;2023-05-17T03:27:57;13.30;99.90
11091;DHT22;5599;52.210;21.046;2023-05-17T03:30:27;13.30;99.90
11091;DHT22;5599;52.210;21.046;2023-05-17T03:32:58;13.20;99.90
11091;DHT22;5599;52.210;21.046;2023-05-17T03:35:28;13.30;99.90
11091;DHT22;5599;52.210;21.046;2023-05-17T03:37:58;13.30;99.90
11091;DHT22;5599;52.210;21.046;2023-05-17T03:40:27;13.20;99.90
11091;DHT22;5599;52.210;21.046;2023-05-17T03:42:58;13.20;99.90
11091;DHT22;5599;52.210;21.046;2023-05-17T03:45:27;13.20;99.90
11091;DHT22;5599;52.210;21.046;2023-05-17T03:47:59;13.20;99.90
11091;DHT22;5599;52.210;21.046;2023-05-17T03:50:28;13.20;99.90
11091;DHT22;5599;52.210;21.046;2023-05-17T03:52:58;13.20;99.90
11091;DHT22;5599;52.210;21.046;2023-05-17T03:55:28;13.30;99.90
11091;DHT22;5599;52.210;21.046;2023-05-17T03:57:57;13.20;99.90
11091;DHT22;5599;52.210;21.046;2023-05-17T04:00:26;13.20;99.90
11091;DHT22;5599;52.210;21.046;2023-05-17T04:03:02;13.20;99.90
11091;DHT22;5599;52.210;21.046;2023-05-17T04:05:32;13.20;99.90
11091;DHT22;5599;52.210;21.046;2023-05-17T04:08:02;13.20;99.90
11091;DHT22;5599;52.210;21.046;2023-05-17T04:10:31;13.20;99.90
11091;DHT22;5599;52.210;21.046;2023-05-17T04:13:00;13.20;99.90
11091;DHT22;5599;52.210;21.046;2023-05-17T04:15:30;13.20;99.90
11091;DHT22;5599;52.210;21.046;2023-05-17T04:18:02;13.20;99.90
11091;DHT22;5599;52.210;21.046;2023-05-17T04:20:32;13.20;99.90
11091;DHT22;5599;52.210;21.046;2023-05-17T04:23:01;13.20;99.90
11091;DHT22;5599;52.210;21.046;2023-05-17T04:25:33;13.20;99.90
11091;DHT22;5599;52.210;21.046;2023-05-17T04:28:03;13.20;99.90
11091;DHT22;5599;52.210;21.046;2023-05-17T04:30:33;13.20;99.90
11091;DHT22;5599;52.210;21.046;2023-05-17T04:33:05;13.20;99.90
11091;DHT22;5599;52.210;21.046;2023-05-17T04:35:34;13.20;99.90
11091;DHT22;5599;52.210;21.046;2023-05-17T04:38:05;13.20;99.90
11091;DHT22;5599;52.210;21.046;2023-05-17T04:40:35;13.20;99.90
11091;DHT22;5599;52.210;21.046;2023-05-17T04:43:04;13.30;99.90
11091;DHT22;5599;52.210;21.046;2023-05-17T04:45:34;13.30;99.90
11091;DHT22;5599;52.210;21.046;2023-05-17T04:48:06;13.30;99.90
11091;DHT22;5599;52.210;21.046;2023-05-17T04:50:35;13.20;99.90
11091;DHT22;5599;52.210;21.046;2023-05-17T04:53:05;13.20;99.90
11091;DHT22;5599;52.210;21.046;2023-05-17T04:55:36;13.20;99.90
11091;DHT22;5599;52.210;21.046;2023-05-17T04:58:05;13.30;99.90
11091;DHT22;5599;52.210;21.046;2023-05-17T05:00:37;13.30;99.90
11091;DHT22;5599;52.210;21.046;2023-05-17T05:03:09;13.30;99.90
11091;DHT22;5599;52.210;21.046;2023-05-17T05:05:39;13.30;99.90
11091;DHT22;5599;52.210;21.046;2023-05-17T05:08:09;13.30;99.90
11091;DHT22;5599;52.210;21.046;2023-05-17T05:10:39;13.30;99.90
11091;DHT22;5599;52.210;21.046;2023-05-17T05:13:09;13.30;99.90
11091;DHT22;5599;52.210;21.046;2023-05-17T05:15:40;13.30;99.90
11091;DHT22;5599;52.210;21.046;2023-05-17T05:18:11;13.40;99.90
11091;DHT22;5599;52.210;21.046;2023-05-17T05:20:41;13.40;99.90
11091;DHT22;5599;52.210;21.046;2023-05-17T05:23:11;13.40;99.90
11091;DHT22;5599;52.210;21.046;2023-05-17T05:25:47;13.50;99.90
11091;DHT22;5599;52.210;21.046;2023-05-17T05:28:20;13.50;99.90
11091;DHT22;5599;52.210;21.046;2023-05-17T05:30:56;13.50;99.90
11091;DHT22;5599;52.210;21.046;2023-05-17T05:33:34;13.50;99.90
11091;DHT22;5599;52.210;21.046;2023-05-17T05:36:05;13.50;99.90
11091;DHT22;5599;52.210;21.046;2023-05-17T05:38:34;13.50;99.90
11091;DHT22;5599;52.210;21.046;2023-05-17T05:41:05;13.50;99.90
11091;DHT22;5599;52.210;21.046;2023-05-17T05:43:36;13.40;99.90
11091;DHT22;5599;52.210;21.046;2023-05-17T05:46:05;13.40;99.90
11091;DHT22;5599;52.210;21.046;2023-05-17T05:48:36;13.40;99.90
11091;DHT22;5599;52.210;21.046;2023-05-17T05:51:09;13.30;99.90
11091;DHT22;5599;52.210;21.046;2023-05-17T05:53:41;13.40;99.90
11091;DHT22;5599;52.210;21.046;2023-05-17T05:56:11;13.30;99.90
11091;DHT22;5599;52.210;21.046;2023-05-17T05:58:41;13.20;99.90
11091;DHT22;5599;52.210;21.046;2023-05-17T06:01:11;13.20;99.90
11091;DHT22;5599;52.210;21.046;2023-05-17T06:03:44;13.20;99.90
11091;DHT22;5599;52.210;21.046;2023-05-17T06:06:14;13.20;99.90
11091;DHT22;5599;52.210;21.046;2023-05-17T06:08:46;13.30;99.90
11091;DHT22;5599;52.210;21.046;2023-05-17T06:11:16;13.20;99.90
11091;DHT22;5599;52.210;21.046;2023-05-17T06:13:47;13.30;99.90
11091;DHT22;5599;52.210;21.046;2023-05-17T06:16:16;13.30;99.90
11091;DHT22;5599;52.210;21.046;2023-05-17T06:18:47;13.30;99.90
11091;DHT22;5599;52.210;21.046;2023-05-17T06:21:18;13.30;99.90
11091;DHT22;5599;52.210;21.046;2023-05-17T06:23:47;13.50;99.90
11091;DHT22;5599;52.210;21.046;2023-05-17T06:26:17;13.50;99.90
11091;DHT22;5599;52.210;21.046;2023-05-17T06:28:46;13.50;99.90
11091;DHT22;5599;52.210;21.046;2023-05-17T06:31:17;13.60;99.90
11091;DHT22;5599;52.210;21.046;2023-05-17T06:33:57;13.50;99.90
11091;DHT22;5599;52.210;21.046;2023-05-17T06:36:43;13.50;99.90
11091;DHT22;5599;52.210;21.046;2023-05-17T06:39:13;13.50;99.90
11091;DHT22;5599;52.210;21.046;2023-05-17T06:41:42;13.40;99.90
11091;DHT22;5599;52.210;21.046;2023-05-17T06:44:16;13.50;99.90
11091;DHT22;5599;52.210;21.046;2023-05-17T06:46:46;13.50;99.90
11091;DHT22;5599;52.210;21.046;2023-05-17T06:49:16;13.50;99.90
11091;DHT22;5599;52.210;21.046;2023-05-17T06:51:46;13.50;99.90
11091;DHT22;5599;52.210;21.046;2023-05-17T06:54:16;13.50;99.90
11091;DHT22;5599;52.210;21.046;2023-05-17T06:56:46;13.50;99.90
11091;DHT22;5599;52.210;21.046;2023-05-17T06:59:15;13.50;99.90
11091;DHT22;5599;52.210;21.046;2023-05-17T07:01:45;13.50;99.90
11091;DHT22;5599;52.210;21.046;2023-05-17T07:04:16;13.50;99.90
11091;DHT22;5599;52.210;21.046;2023-05-17T07:06:45;13.60;99.90
11091;DHT22;5599;52.210;21.046;2023-05-17T07:09:15;13.50;99.90
11091;DHT22;5599;52.210;21.046;2023-05-17T07:11:44;13.50;99.90
11091;DHT22;5599;52.210;21.046;2023-05-17T07:14:14;13.50;99.90
11091;DHT22;5599;52.210;21.046;2023-05-17T07:16:43;13.60;99.90
11091;DHT22;5599;52.210;21.046;2023-05-17T07:19:12;13.70;99.90
11091;DHT22;5599;52.210;21.046;2023-05-17T07:21:44;13.80;99.90
11091;DHT22;5599;52.210;21.046;2023-05-17T07:24:14;13.80;99.90
11091;DHT22;5599;52.210;21.046;2023-05-17T07:26:44;13.80;99.90
11091;DHT22;5599;52.210;21.046;2023-05-17T07:29:14;13.90;99.90
11091;DHT22;5599;52.210;21.046;2023-05-17T07:31:44;13.80;99.90
11091;DHT22;5599;52.210;21.046;2023-05-17T07:34:13;13.80;99.90
11091;DHT22;5599;52.210;21.046;2023-05-17T07:36:44;13.70;99.90
11091;DHT22;5599;52.210;21.046;2023-05-17T07:39:14;13.70;99.90
11091;DHT22;5599;52.210;21.046;2023-05-17T07:41:44;13.80;99.90
11091;DHT22;5599;52.210;21.046;2023-05-17T07:44:14;13.70;99.90
11091;DHT22;5599;52.210;21.046;2023-05-17T07:46:45;13.70;99.90
11091;DHT22;5599;52.210;21.046;2023-05-17T07:49:14;13.60;99.90
11091;DHT22;5599;52.210;21.046;2023-05-17T07:51:45;13.60;99.90
11091;DHT22;5599;52.210;21.046;2023-05-17T07:54:21;13.60;99.90
11091;DHT22;5599;52.210;21.046;2023-05-17T07:56:51;13.70;99.90
11091;DHT22;5599;52.210;21.046;2023-05-17T07:59:24;13.70;99.90
11091;DHT22;5599;52.210;21.046;2023-05-17T08:01:53;13.70;99.90
11091;DHT22;5599;52.210;21.046;2023-05-17T08:04:23;13.90;99.90
11091;DHT22;5599;52.210;21.046;2023-05-17T08:06:53;13.80;99.90
11091;DHT22;5599;52.210;21.046;2023-05-17T08:09:23;13.80;99.90
11091;DHT22;5599;52.210;21.046;2023-05-17T08:11:52;13.80;99.90
11091;DHT22;5599;52.210;21.046;2023-05-17T08:14:22;13.90;99.90
11091;DHT22;5599;52.210;21.046;2023-05-17T08:16:53;13.80;99.90
11091;DHT22;5599;52.210;21.046;2023-05-17T08:19:23;13.90;99.90
11091;DHT22;5599;52.210;21.046;2023-05-17T08:21:54;13.90;99.90
11091;DHT22;5599;52.210;21.046;2023-05-17T08:24:24;13.90;99.90
11091;DHT22;5599;52.210;21.046;2023-05-17T08:26:53;13.90;99.90
11091;DHT22;5599;52.210;21.046;2023-05-17T08:29:23;13.90;99.90
11091;DHT22;5599;52.210;21.046;2023-05-17T08:31:53;13.80;99.90
11091;DHT22;5599;52.210;21.046;2023-05-17T08:34:25;13.90;99.90
11091;DHT22;5599;52.210;21.046;2023-05-17T08:36:56;14.00;99.90
11091;DHT22;5599;52.210;21.046;2023-05-17T08:39:26;14.10;99.90
11091;DHT22;5599;52.210;21.046;2023-05-17T08:41:55;14.00;99.90
11091;DHT22;5599;52.210;21.046;2023-05-17T08:44:27;14.00;99.90
11091;DHT22;5599;52.210;21.046;2023-05-17T08:46:57;14.00;99.90
11091;DHT22;5599;52.210;21.046;2023-05-17T08:49:30;14.00;99.90
11091;DHT22;5599;52.210;21.046;2023-05-17T08:52:01;14.10;99.90
11091;DHT22;5599;52.210;21.046;2023-05-17T08:54:36;14.00;99.90
11091;DHT22;5599;52.210;21.046;2023-05-17T08:57:07;14.10;99.90
11091;DHT22;5599;52.210;21.046;2023-05-17T08:59:38;14.00;99.90
11091;DHT22;5599;52.210;21.046;2023-05-17T09:02:09;13.90;99.90
11091;DHT22;5599;52.210;21.046;2023-05-17T09:04:38;14.00;99.90
11091;DHT22;5599;52.210;21.046;2023-05-17T09:07:10;14.00;99.90
11091;DHT22;5599;52.210;21.046;2023-05-17T09:09:41;13.90;99.90
11091;DHT22;5599;52.210;21.046;2023-05-17T09:12:11;13.90;99.90
11091;DHT22;5599;52.210;21.046;2023-05-17T09:14:40;13.90;99.90
11091;DHT22;5599;52.210;21.046;2023-05-17T09:17:13;13.90;99.90
11091;DHT22;5599;52.210;21.046;2023-05-17T09:19:44;13.80;99.90
11091;DHT22;5599;52.210;21.046;2023-05-17T09:22:17;13.80;99.90
11091;DHT22;5599;52.210;21.046;2023-05-17T09:24:48;13.80;99.90
11091;DHT22;5599;52.210;21.046;2023-05-17T09:27:19;13.80;99.90
11091;DHT22;5599;52.210;21.046;2023-05-17T09:29:49;13.80;99.90
11091;DHT22;5599;52.210;21.046;2023-05-17T09:32:19;13.60;99.90
11091;DHT22;5599;52.210;21.046;2023-05-17T09:34:50;13.80;99.90
11091;DHT22;5599;52.210;21.046;2023-05-17T09:37:22;13.80;99.90
11091;DHT22;5599;52.210;21.046;2023-05-17T09:39:54;14.00;99.90
11091;DHT22;5599;52.210;21.046;2023-05-17T09:42:25;14.00;99.90
11091;DHT22;5599;52.210;21.046;2023-05-17T09:44:55;14.00;99.90
11091;DHT22;5599;52.210;21.046;2023-05-17T09:47:28;14.00;99.90
11091;DHT22;5599;52.210;21.046;2023-05-17T09:50:00;14.00;99.90
11091;DHT22;5599;52.210;21.046;2023-05-17T09:52:34;14.00;99.90
11091;DHT22;5599;52.210;21.046;2023-05-17T09:55:05;13.70;99.90
11091;DHT22;5599;52.210;21.046;2023-05-17T09:57:37;13.60;99.90
11091;DHT22;5599;52.210;21.046;2023-05-17T10:00:08;13.60;99.90
11091;DHT22;5599;52.210;21.046;2023-05-17T10:02:39;13.70;91.90
11091;DHT22;5599;52.210;21.046;2023-05-17T10:05:11;13.70;99.90
11091;DHT22;5599;52.210;21.046;2023-05-17T10:07:44;13.60;54.40
11091;DHT22;5599;52.210;21.046;2023-05-17T10:10:14;13.60;99.90
11091;DHT22;5599;52.210;21.046;2023-05-17T10:12:44;13.60;99.90
11091;DHT22;5599;52.210;21.046;2023-05-17T10:15:15;13.50;99.90
11091;DHT22;5599;52.210;21.046;2023-05-17T10:17:45;13.50;99.90
11091;DHT22;5599;52.210;21.046;2023-05-17T10:20:15;13.40;99.90
11091;DHT22;5599;52.210;21.046;2023-05-17T10:22:47;13.30;99.90
11091;DHT22;5599;52.210;21.046;2023-05-17T10:25:18;13.20;99.90
11091;DHT22;5599;52.210;21.046;2023-05-17T10:27:48;13.20;99.90
11091;DHT22;5599;52.210;21.046;2023-05-17T10:30:19;13.20;99.90
11091;DHT22;5599;52.210;21.046;2023-05-17T10:32:49;13.20;99.90
11091;DHT22;5599;52.210;21.046;2023-05-17T10:35:20;13.30;99.90
11091;DHT22;5599;52.210;21.046;2023-05-17T10:37:52;13.30;99.90
11091;DHT22;5599;52.210;21.046;2023-05-17T10:40:21;13.30;99.90
11091;DHT22;5599;52.210;21.046;2023-05-17T10:42:53;13.30;99.90
11091;DHT22;5599;52.210;21.046;2023-05-17T10:45:24;13.30;99.90
11091;DHT22;5599;52.210;21.046;2023-05-17T10:47:54;13.40;99.90
11091;DHT22;5599;52.210;21.046;2023-05-17T10:50:27;13.50;99.90
11091;DHT22;5599;52.210;21.046;2023-05-17T10:52:59;13.50;21.90
11091;DHT22;5599;52.210;21.046;2023-05-17T10:55:37;13.50;49.90
11091;DHT22;5599;52.210;21.046;2023-05-17T10:58:13;13.50;39.10
11091;DHT22;5599;52.210;21.046;2023-05-17T11:00:48;13.40;1.00
11091;DHT22;5599;52.210;21.046;2023-05-17T11:03:21;13.30;1.00
11091;DHT22;5599;52.210;21.046;2023-05-17T11:06:13;13.30;1.00
11091;DHT22;5599;52.210;21.046;2023-05-17T11:09:16;13.30;1.00
11091;DHT22;5599;52.210;21.046;2023-05-17T11:12:06;13.20;1.00
11091;DHT22;5599;52.210;21.046;2023-05-17T11:14:45;13.20;1.00
11091;DHT22;5599;52.210;21.046;2023-05-17T11:17:16;13.20;1.00
11091;DHT22;5599;52.210;21.046;2023-05-17T11:22:40;13.20;44.40
11091;DHT22;5599;52.210;21.046;2023-05-17T11:25:12;13.20;4.90
11091;DHT22;5599;52.210;21.046;2023-05-17T11:27:47;13.30;15.80
11091;DHT22;5599;52.210;21.046;2023-05-17T11:30:18;13.30;1.00
11091;DHT22;5599;52.210;21.046;2023-05-17T11:32:52;13.30;1.00
11091;DHT22;5599;52.210;21.046;2023-05-17T11:35:26;13.30;27.20
11091;DHT22;5599;52.210;21.046;2023-05-17T11:38:12;13.30;1.00
11091;DHT22;5599;52.210;21.046;2023-05-17T11:40:45;13.40;99.90
11091;DHT22;5599;52.210;21.046;2023-05-17T11:43:16;13.40;1.00
11091;DHT22;5599;52.210;21.046;2023-05-17T11:45:46;13.50;99.90
11091;DHT22;5599;52.210;21.046;2023-05-17T11:48:21;13.50;99.90
11091;DHT22;5599;52.210;21.046;2023-05-17T11:50:53;13.50;17.90
11091;DHT22;5599;52.210;21.046;2023-05-17T11:53:24;13.40;11.50
11091;DHT22;5599;52.210;21.046;2023-05-17T11:55:56;13.40;1.00
11091;DHT22;5599;52.210;21.046;2023-05-17T11:58:30;13.40;1.00
11091;DHT22;5599;52.210;21.046;2023-05-17T12:01:00;13.40;14.90
11091;DHT22;5599;52.210;21.046;2023-05-17T12:03:32;13.30;21.70
11091;DHT22;5599;52.210;21.046;2023-05-17T12:06:04;13.40;74.80
11091;DHT22;5599;52.210;21.046;2023-05-17T12:08:37;13.40;29.10
11091;DHT22;5599;52.210;21.046;2023-05-17T12:11:11;13.40;50.10
11091;DHT22;5599;52.210;21.046;2023-05-17T12:13:43;13.50;1.00
11091;DHT22;5599;52.210;21.046;2023-05-17T12:16:19;13.60;1.00
11091;DHT22;5599;52.210;21.046;2023-05-17T12:18:50;13.70;1.00
11091;DHT22;5599;52.210;21.046;2023-05-17T12:21:20;13.80;1.00
11091;DHT22;5599;52.210;21.046;2023-05-17T12:23:50;13.90;1.00
11091;DHT22;5599;52.210;21.046;2023-05-17T12:26:22;13.90;1.00
11091;DHT22;5599;52.210;21.046;2023-05-17T12:28:53;13.90;1.00
11091;DHT22;5599;52.210;21.046;2023-05-17T12:31:26;14.00;1.00
11091;DHT22;5599;52.210;21.046;2023-05-17T12:33:57;13.90;1.00
11091;DHT22;5599;52.210;21.046;2023-05-17T12:36:31;13.90;1.00
11091;DHT22;5599;52.210;21.046;2023-05-17T12:39:02;13.90;1.00
11091;DHT22;5599;52.210;21.046;2023-05-17T12:41:37;13.80;1.00
11091;DHT22;5599;52.210;21.046;2023-05-17T12:44:07;13.80;55.30
11091;DHT22;5599;52.210;21.046;2023-05-17T12:46:39;13.70;1.00
11091;DHT22;5599;52.210;21.046;2023-05-17T12:49:09;13.70;1.00
11091;DHT22;5599;52.210;21.046;2023-05-17T12:51:40;13.80;1.00
11091;DHT22;5599;52.210;21.046;2023-05-17T12:54:11;13.70;16.30
11091;DHT22;5599;52.210;21.046;2023-05-17T12:56:44;13.80;74.70
11091;DHT22;5599;52.210;21.046;2023-05-17T12:59:15;13.70;41.60
11091;DHT22;5599;52.210;21.046;2023-05-17T13:01:46;13.80;99.90
11091;DHT22;5599;52.210;21.046;2023-05-17T13:04:18;13.80;1.00
11091;DHT22;5599;52.210;21.046;2023-05-17T13:06:49;13.80;42.40
11091;DHT22;5599;52.210;21.046;2023-05-17T13:09:21;13.80;53.80
11091;DHT22;5599;52.210;21.046;2023-05-17T13:11:53;13.80;99.90
11091;DHT22;5599;52.210;21.046;2023-05-17T13:14:34;13.70;31.10
11091;DHT22;5599;52.210;21.046;2023-05-17T13:17:05;13.80;1.00
11091;DHT22;5599;52.210;21.046;2023-05-17T13:19:34;13.80;24.50
11091;DHT22;5599;52.210;21.046;2023-05-17T13:22:04;13.80;99.90
11091;DHT22;5599;52.210;21.046;2023-05-17T13:24:35;13.90;99.90
11091;DHT22;5599;52.210;21.046;2023-05-17T13:27:07;13.80;43.10
11091;DHT22;5599;52.210;21.046;2023-05-17T13:29:38;13.90;1.00
11091;DHT22;5599;52.210;21.046;2023-05-17T13:32:09;13.80;99.90
11091;DHT22;5599;52.210;21.046;2023-05-17T13:34:39;13.80;1.00
11091;DHT22;5599;52.210;21.046;2023-05-17T13:37:09;13.70;84.80
11091;DHT22;5599;52.210;21.046;2023-05-17T13:39:39;13.80;99.90
11091;DHT22;5599;52.210;21.046;2023-05-17T13:42:11;13.80;99.90
11091;DHT22;5599;52.210;21.046;2023-05-17T13:44:41;13.80;99.90
11091;DHT22;5599;52.210;21.046;2023-05-17T13:47:11;13.90;1.00
11091;DHT22;5599;52.210;21.046;2023-05-17T13:49:40;13.90;57.40
11091;DHT22;5599;52.210;21.046;2023-05-17T13:52:10;13.90;47.20
11091;DHT22;5599;52.210;21.046;2023-05-17T13:54:40;13.90;99.90
11091;DHT22;5599;52.210;21.046;2023-05-17T13:57:11;14.00;99.90
11091;DHT22;5599;52.210;21.046;2023-05-17T13:59:41;13.80;37.40
11091;DHT22;5599;52.210;21.046;2023-05-17T14:02:12;13.80;99.90
11091;DHT22;5599;52.210;21.046;2023-05-17T14:04:42;13.80;85.80
11091;DHT22;5599;52.210;21.046;2023-05-17T14:07:11;13.80;99.90
11091;DHT22;5599;52.210;21.046;2023-05-17T14:09:41;13.70;99.90
11091;DHT22;5599;52.210;21.046;2023-05-17T14:12:12;13.80;70.20
11091;DHT22;5599;52.210;21.046;2023-05-17T14:14:41;13.80;98.20
11091;DHT22;5599;52.210;21.046;2023-05-17T14:17:10;13.90;99.90
11091;DHT22;5599;52.210;21.046;2023-05-17T14:19:40;13.90;99.90
11091;DHT22;5599;52.210;21.046;2023-05-17T14:22:10;13.90;99.90
11091;DHT22;5599;52.210;21.046;2023-05-17T14:24:40;14.00;99.90
11091;DHT22;5599;52.210;21.046;2023-05-17T14:27:11;14.10;99.90
11091;DHT22;5599;52.210;21.046;2023-05-17T14:29:40;14.20;99.90
11091;DHT22;5599;52.210;21.046;2023-05-17T14:32:10;14.20;99.90
11091;DHT22;5599;52.210;21.046;2023-05-17T14:34:40;14.20;18.00
11091;DHT22;5599;52.210;21.046;2023-05-17T14:37:10;14.20;78.80
11091;DHT22;5599;52.210;21.046;2023-05-17T14:39:41;14.20;1.00
11091;DHT22;5599;52.210;21.046;2023-05-17T14:42:32;14.10;1.00
11091;DHT22;5599;52.210;21.046;2023-05-17T14:45:02;14.00;1.00
11091;DHT22;5599;52.210;21.046;2023-05-17T14:47:32;13.90;1.00
11091;DHT22;5599;52.210;21.046;2023-05-17T14:50:04;13.90;1.00
11091;DHT22;5599;52.210;21.046;2023-05-17T14:52:33;13.90;1.00
11091;DHT22;5599;52.210;21.046;2023-05-17T14:55:03;13.90;1.00
11091;DHT22;5599;52.210;21.046;2023-05-17T14:57:34;14.00;1.00
11091;DHT22;5599;52.210;21.046;2023-05-17T15:00:05;14.00;1.00
11091;DHT22;5599;52.210;21.046;2023-05-17T15:02:37;13.80;1.00
11091;DHT22;5599;52.210;21.046;2023-05-17T15:05:08;13.90;1.00
11091;DHT22;5599;52.210;21.046;2023-05-17T15:07:37;13.90;1.00
11091;DHT22;5599;52.210;21.046;2023-05-17T15:10:07;14.00;1.00
11091;DHT22;5599;52.210;21.046;2023-05-17T15:12:41;14.20;1.00
11091;DHT22;5599;52.210;21.046;2023-05-17T15:15:10;14.20;1.00
11091;DHT22;5599;52.210;21.046;2023-05-17T15:17:40;14.30;1.00
11091;DHT22;5599;52.210;21.046;2023-05-17T15:20:10;14.30;1.00
11091;DHT22;5599;52.210;21.046;2023-05-17T15:22:40;14.30;1.00
11091;DHT22;5599;52.210;21.046;2023-05-17T15:25:09;14.20;1.00
11091;DHT22;5599;52.210;21.046;2023-05-17T15:27:40;14.10;1.00
11091;DHT22;5599;52.210;21.046;2023-05-17T15:30:11;14.10;1.00
11091;DHT22;5599;52.210;21.046;2023-05-17T15:32:40;14.10;1.00
11091;DHT22;5599;52.210;21.046;2023-05-17T15:35:10;14.10;1.00
11091;DHT22;5599;52.210;21.046;2023-05-17T15:37:39;14.10;1.00
11091;DHT22;5599;52.210;21.046;2023-05-17T15:40:09;14.20;1.00
11091;DHT22;5599;52.210;21.046;2023-05-17T15:42:41;14.20;1.00
11091;DHT22;5599;52.210;21.046;2023-05-17T15:45:10;14.10;99.90
11091;DHT22;5599;52.210;21.046;2023-05-17T15:47:41;14.10;99.90
11091;DHT22;5599;52.210;21.046;2023-05-17T15:50:11;14.10;99.90
11091;DHT22;5599;52.210;21.046;2023-05-17T15:52:40;14.20;99.90
11091;DHT22;5599;52.210;21.046;2023-05-17T15:55:10;14.20;99.90
11091;DHT22;5599;52.210;21.046;2023-05-17T15:57:41;14.10;1.00
11091;DHT22;5599;52.210;21.046;2023-05-17T16:00:11;14.20;1.00
11091;DHT22;5599;52.210;21.046;2023-05-17T16:02:41;14.20;1.00